createdAt,value
2023-01-29T00:01:59.328Z,127.33333
2023-01-29T00:07:01.061Z,125.71091
2023-01-29T00:12:02.571Z,125.71091
2023-01-29T00:17:04.375Z,126.24852
2023-01-29T00:22:06.074Z,128.98498
2023-01-29T00:27:07.889Z,131.23404
2023-01-29T00:32:09.616Z,132.3792
2023-01-29T00:37:11.419Z,130.66667
2023-01-29T00:42:13.319Z,126.78932
2023-01-29T00:47:14.877Z,124.64516
2023-01-29T00:52:17.073Z,141.4359
2023-01-29T00:57:20.290Z,145.96721
2023-01-29T01:02:22.456Z,147.30033
2023-01-29T01:07:24.509Z,149.33333
2023-01-29T01:12:26.290Z,146.63158
2023-01-29T01:17:28.153Z,142.70968
2023-01-29T01:22:29.750Z,141.4359
2023-01-29T01:27:31.443Z,142.07074
2023-01-29T01:32:32.974Z,150.71141
2023-01-29T01:37:34.622Z,157.88889
2023-01-29T01:42:36.207Z,159.38462
2023-01-29T01:47:37.905Z,165.58273
2023-01-29T01:52:39.743Z,162.43972
2023-01-29T01:57:41.588Z,155.68385
2023-01-29T02:02:43.923Z,153.52381
2023-01-29T02:07:45.842Z,152.10811
2023-01-29T02:12:47.690Z,145.30719
2023-01-29T02:17:49.510Z,146.63158
2023-01-29T02:22:51.291Z,146.63158
2023-01-29T02:27:53.068Z,148.65116
2023-01-29T02:32:55.003Z,145.96721
2023-01-29T02:37:57.078Z,148.65116
2023-01-29T02:42:58.860Z,147.30033
2023-01-29T02:48:00.910Z,147.97351
2023-01-29T02:53:02.702Z,147.30033
2023-01-29T02:58:04.666Z,146.63158
2023-01-29T03:03:06.628Z,149.33333
2023-01-29T03:08:08.641Z,145.96721
2023-01-29T03:13:10.134Z,153.52381
2023-01-29T03:18:11.843Z,153.52381
2023-01-29T03:23:13.362Z,148.65116
2023-01-29T03:28:14.865Z,147.30033
2023-01-29T03:33:16.708Z,147.97351
2023-01-29T03:38:18.396Z,152.10811
2023-01-29T03:43:19.981Z,151.40741
2023-01-29T03:48:21.480Z,151.40741
2023-01-29T03:53:22.916Z,153.52381
2023-01-29T03:58:24.391Z,151.40741
2023-01-29T04:03:26.519Z,152.10811
2023-01-29T04:08:28.728Z,148.65116
2023-01-29T04:13:30.555Z,153.52381
2023-01-29T04:18:32.559Z,153.52381
2023-01-29T04:23:34.539Z,151.40741
2023-01-29T04:28:36.346Z,151.40741
2023-01-29T04:33:38.268Z,144.65147
2023-01-29T04:38:40.566Z,144
2023-01-29T04:43:42.442Z,142.70968
2023-01-29T04:48:44.403Z,142.70968
2023-01-29T04:53:46.316Z,147.30033
2023-01-29T04:58:48.173Z,148.65116
2023-01-29T05:03:50.323Z,152.10811
2023-01-29T05:08:52.513Z,147.30033
2023-01-29T05:13:54.411Z,147.97351
2023-01-29T05:18:56.432Z,157.14879
2023-01-29T05:23:58.296Z,150.71141
2023-01-29T05:29:00.119Z,154.9589
2023-01-29T05:34:02.355Z,147.30033
2023-01-29T05:39:04.420Z,147.30033
2023-01-29T05:44:06.348Z,151.40741
2023-01-29T05:49:08.319Z,152.81356
2023-01-29T05:54:09.993Z,155.68385
2023-01-29T05:59:11.515Z,150.71141
2023-01-29T06:04:13.005Z,158.63415
2023-01-29T06:09:14.807Z,158.63415
2023-01-29T06:14:16.365Z,157.14879
2023-01-29T06:19:17.949Z,161.66784
2023-01-29T06:24:19.931Z,156.41379
2023-01-29T06:29:21.724Z,158.63415
2023-01-29T06:34:23.515Z,160.90141
2023-01-29T06:39:25.462Z,162.43972
2023-01-29T06:44:27.054Z,174.71161
2023-01-29T06:49:28.951Z,164
2023-01-29T06:54:30.657Z,170.47059
2023-01-29T06:59:32.358Z,183.68872
2023-01-29T07:04:34.511Z,195.42857
2023-01-29T07:09:36.371Z,203.91561
2023-01-29T07:14:38.211Z,201.74059
2023-01-29T07:19:40.050Z,185.56863
2023-01-29T07:24:41.827Z,207.24786
2023-01-29T07:29:43.604Z,207.24786
2023-01-29T07:34:45.343Z,211.82609
2023-01-29T07:39:47.419Z,198.54545
2023-01-29T07:44:49.158Z,210.66667
2023-01-29T07:49:51.087Z,222.73303
2023-01-29T07:54:52.945Z,186.51969
2023-01-29T07:59:54.806Z,192.3871
2023-01-29T08:04:56.781Z,200.66667
2023-01-29T08:09:58.861Z,199.60166
2023-01-29T08:15:00.631Z,199.60166
2023-01-29T08:20:02.457Z,180.01533
2023-01-29T08:25:08.477Z,189.41833
2023-01-29T08:30:22.609Z,226.56881
2023-01-29T08:35:24.227Z,195.42857
2023-01-29T08:40:26.235Z,186.51969
2023-01-29T08:45:28.194Z,178.22053
2023-01-29T08:50:30.123Z,183.68872
2023-01-29T08:55:31.918Z,227.87097
2023-01-29T09:00:33.808Z,253.54774
2023-01-29T09:05:35.958Z,278.78261
2023-01-29T09:10:38.013Z,273.41176
2023-01-29T09:15:40.002Z,269.92593
2023-01-29T09:20:42.622Z,269.92593
2023-01-29T09:25:45.006Z,245.96078
2023-01-29T09:30:47.127Z,263.17098
2023-01-29T09:35:49.597Z,282.46154
2023-01-29T09:40:51.971Z,256.69036
2023-01-29T09:45:53.882Z,255.11111
2023-01-29T09:50:55.895Z,256.69036
2023-01-29T09:55:57.965Z,271.65957
2023-01-29T10:01:00.183Z,250.46766
2023-01-29T10:06:02.096Z,258.28571
2023-01-29T10:11:04.307Z,269.92593
2023-01-29T10:16:06.243Z,253.54774
2023-01-29T10:21:08.595Z,266.51309
2023-01-29T10:26:10.876Z,271.65957
2023-01-29T10:31:12.757Z,245.96078
2023-01-29T10:36:15.139Z,273.41176
2023-01-29T10:41:17.557Z,306.35294
2023-01-29T10:46:19.970Z,349.26316
2023-01-29T10:51:22.054Z,269.92593
2023-01-29T10:56:24.635Z,288.13408
2023-01-29T11:01:27.170Z,308.49704
2023-01-29T11:06:29.249Z,276.97297
2023-01-29T11:11:31.444Z,278.78261
2023-01-29T11:16:33.591Z,278.78261
2023-01-29T11:21:35.420Z,275.1828
2023-01-29T11:26:37.555Z,292.0226
2023-01-29T11:31:39.764Z,306.35294
2023-01-29T11:36:42.483Z,304.23392
2023-01-29T11:41:45.299Z,290.06742
2023-01-29T11:46:47.824Z,282.46154
2023-01-29T11:51:50.542Z,282.46154
2023-01-29T11:56:53.004Z,284.33149
2023-01-29T12:01:55.130Z,282.46154
2023-01-29T12:06:57.023Z,292.0226
2023-01-29T12:11:59.500Z,302.13953
2023-01-29T12:17:01.905Z,284.33149
2023-01-29T12:22:04.173Z,315.08434
2023-01-29T12:27:06.490Z,292.0226
2023-01-29T12:32:08.964Z,290.06742
2023-01-29T12:37:11.316Z,290.06742
2023-01-29T12:42:13.585Z,300.06936
2023-01-29T12:47:17.134Z,298.02299
2023-01-29T12:52:19.329Z,300.06936
2023-01-29T12:57:21.913Z,264.83333
2023-01-29T13:02:24.719Z,263.17098
2023-01-29T13:07:26.902Z,280.61202
2023-01-29T13:12:29.493Z,308.49704
2023-01-29T13:17:31.923Z,300.06936
2023-01-29T13:22:34.316Z,341.41935
2023-01-29T13:27:36.639Z,354.66667
2023-01-29T13:32:39.194Z,341.41935
2023-01-29T13:37:41.902Z,306.35294
2023-01-29T13:42:44.931Z,365.91781
2023-01-29T13:47:47.729Z,346.61438
2023-01-29T13:52:50.743Z,344
2023-01-29T13:57:56.025Z,336.35669
2023-01-29T14:02:59.192Z,292.0226
2023-01-29T14:08:01.800Z,315.08434
2023-01-29T14:13:04.589Z,300.06936
2023-01-29T14:18:07.051Z,282.46154
2023-01-29T14:23:09.802Z,261.52577
2023-01-29T14:28:12.395Z,255.11111
2023-01-29T14:33:14.600Z,259.89744
2023-01-29T14:38:17.134Z,233.20188
2023-01-29T14:43:20.573Z,233.20188
2023-01-29T14:48:23.972Z,235.94313
2023-01-29T14:53:27.082Z,237.33333
2023-01-29T14:58:30.061Z,202.82353
2023-01-29T15:03:33.682Z,221.47748
2023-01-29T15:08:37.395Z,222.73303
2023-01-29T15:13:41.155Z,211.82609
2023-01-29T15:18:44.282Z,216.56637
2023-01-29T15:23:47.621Z,214.17544
2023-01-29T15:28:58.536Z,233.20188
2023-01-29T15:34:05.503Z,245.96078
2023-01-29T15:39:08.086Z,250.46766
2023-01-29T15:44:11.378Z,248.9505
2023-01-29T15:49:13.764Z,275.1828
2023-01-29T15:54:16.599Z,256.69036
2023-01-29T15:59:19.325Z,296
2023-01-29T16:04:21.764Z,280.61202
2023-01-29T16:09:24.659Z,304.23392
2023-01-29T16:14:27.866Z,235.94313
2023-01-29T16:19:31.119Z,212.99563
2023-01-29T16:24:34.348Z,230.51163
2023-01-29T16:29:37.402Z,244.4878
2023-01-29T16:34:40.857Z,202.82353
2023-01-29T16:39:44.133Z,217.77778
2023-01-29T16:44:47.909Z,229.18519
2023-01-29T16:49:51.245Z,250.46766
2023-01-29T16:54:54.423Z,244.4878
2023-01-29T16:59:57.970Z,229.18519
2023-01-29T17:05:01.355Z,234.56604
2023-01-29T17:10:04.482Z,230.51163
2023-01-29T17:15:08.647Z,227.87097
2023-01-29T17:20:12.069Z,219
2023-01-29T17:25:15.646Z,229.18519
2023-01-29T17:30:18.719Z,234.56604
2023-01-29T17:35:21.695Z,230.51163
2023-01-29T17:40:25.492Z,230.51163
2023-01-29T17:45:30.343Z,214.17544
2023-01-29T17:50:33.782Z,205.01695
2023-01-29T17:55:37.486Z,190.4
2023-01-29T18:00:41.106Z,170.47059
2023-01-29T18:05:43.861Z,161.66784
2023-01-29T18:10:46.678Z,163.21708
2023-01-29T18:15:50.617Z,138.32177
2023-01-29T18:20:53.722Z,112.76712
2023-01-29T18:25:56.731Z,104.83551
2023-01-29T18:30:59.760Z,101.14286
2023-01-29T18:36:03.160Z,101.94872
2023-01-29T18:41:07.184Z,106.96296
2023-01-29T18:46:10.804Z,112.30601
2023-01-29T18:51:14.844Z,108.70588
2023-01-29T18:56:18.651Z,123.06977
2023-01-29T19:01:22.183Z,127.33333
2023-01-29T19:06:25.337Z,124.64516
2023-01-29T19:11:28.557Z,132.3792
2023-01-29T19:16:32.801Z,135.90031
2023-01-29T19:21:36.417Z,134.71207
2023-01-29T19:26:40.519Z,131.23404
2023-01-29T19:31:44.784Z,137.10345
2023-01-29T19:36:48.772Z,142.70968
2023-01-29T19:41:52.417Z,139.55556
2023-01-29T19:46:57.149Z,136.5
2023-01-29T19:52:02.089Z,132.95706
2023-01-29T19:57:06.127Z,120
2023-01-29T20:02:10.347Z,123.06977
2023-01-29T20:07:14.049Z,145.96721
2023-01-29T20:12:16.874Z,169.64103
2023-01-29T20:17:20.591Z,168.81752
2023-01-29T20:22:23.561Z,169.64103
2023-01-29T20:27:26.786Z,163.21708
2023-01-29T20:32:29.757Z,164.78853
2023-01-29T20:37:33.287Z,168.81752
2023-01-29T20:42:36.079Z,172.14815
2023-01-29T20:47:39.284Z,164.78853
2023-01-29T20:52:41.982Z,163.21708
2023-01-29T20:57:44.906Z,152.10811
2023-01-29T21:03:08.306Z,146.63158
2023-01-29T21:08:10.138Z,142.07074
2023-01-29T21:13:11.941Z,139.55556
2023-01-29T21:18:14.343Z,137.10345
2023-01-29T21:23:16.113Z,134.12346
2023-01-29T21:28:17.929Z,133.53846
2023-01-29T21:33:19.404Z,134.71207
2023-01-29T21:38:21.152Z,127.33333
2023-01-29T21:43:23.275Z,127.8806
2023-01-29T21:48:25.212Z,131.80488
2023-01-29T21:53:26.887Z,132.3792
2023-01-29T21:58:28.832Z,131.23404
2023-01-29T22:03:30.620Z,128.43114
2023-01-29T22:08:32.303Z,125.71091
2023-01-29T22:13:33.962Z,127.33333
2023-01-29T22:18:35.613Z,131.23404
2023-01-29T22:23:37.121Z,128.98498
2023-01-29T22:28:39.139Z,124.64516
2023-01-29T22:33:41.071Z,120.5043
2023-01-29T22:38:42.875Z,121.01149
2023-01-29T22:43:44.827Z,118.0113
2023-01-29T22:48:46.708Z,118.0113
2023-01-29T22:53:48.329Z,122.03468
2023-01-29T22:58:50.041Z,120.5043
2023-01-29T23:03:52.101Z,119.49858
2023-01-29T23:08:54.046Z,120.5043
2023-01-29T23:13:56.064Z,119.49858
2023-01-29T23:18:58.210Z,123.59184
2023-01-29T23:24:00.039Z,120.5043
2023-01-29T23:29:01.981Z,124.64516
2023-01-29T23:34:03.914Z,123.06977
2023-01-29T23:39:05.704Z,122.03468
2023-01-29T23:44:07.647Z,124.11696
2023-01-29T23:49:09.688Z,126.78932
2023-01-29T23:54:11.540Z,122.55072
2023-01-29T23:59:13.677Z,125.17647
